Time;durP1;ratioP1;P1;durP2;ratioP2;P2;SDS_P1;SDS_P2;PMS_P1;PMS_P2;Temp;Humidity;BMP_temperature;BMP_pressure;BME280_temperature;BME280_humidity;BME280_pressure;Samples;Min_cycle;Max_cycle;Signal;HPM_P1;HPM_P2
2022/05/13 00:01:26;;;;;;;9.20;2.90;;;;;;;13.92;58.43;96816.46;107688;1268;37452;-76
2022/05/13 00:03:57;;;;;;;5.30;2.50;;;;;;;13.92;58.68;96818.39;107681;1268;47469;-76
2022/05/13 00:06:28;;;;;;;7.90;2.70;;;;;;;13.70;59.21;96816.85;107728;1268;34669;-76
2022/05/13 00:08:59;;;;;;;7.00;2.60;;;;;;;13.32;59.98;96817.25;107683;1268;61140;-76
2022/05/13 00:11:30;;;;;;;8.60;2.30;;;;;;;13.01;60.86;96814.50;107728;1268;37098;-76
2022/05/13 00:14:02;;;;;;;6.10;2.20;;;;;;;12.90;61.26;96810.87;107644;1269;37271;-76
2022/05/13 00:16:35;;;;;;;7.20;2.40;;;;;;;12.98;61.55;96808.90;107653;1268;40407;-76
2022/05/13 00:19:08;;;;;;;5.40;2.20;;;;;;;13.07;61.38;96811.10;107755;1268;35529;-76
2022/05/13 00:21:39;;;;;;;6.20;2.10;;;;;;;13.18;59.22;96814.48;107725;1268;40197;-76
2022/05/13 00:24:11;;;;;;;4.50;2.00;;;;;;;13.34;58.67;96812.91;107633;1270;46882;-76
2022/05/13 00:26:42;;;;;;;4.90;1.60;;;;;;;13.43;58.82;96796.86;107658;1270;55505;-76
2022/05/13 00:29:13;;;;;;;9.50;2.20;;;;;;;13.45;58.71;96790.79;107710;1270;33069;-76
2022/05/13 00:31:44;;;;;;;10.30;2.40;;;;;;;13.17;59.55;96799.64;107667;1269;36576;-76
2022/05/13 00:34:15;;;;;;;4.30;1.80;;;;;;;12.91;60.31;96795.20;107832;1268;33907;-76
2022/05/13 00:36:47;;;;;;;5.70;2.10;;;;;;;12.84;60.47;96795.79;107712;1268;32820;-76
2022/05/13 00:39:19;;;;;;;5.70;1.80;;;;;;;12.94;60.44;96785.21;107785;1268;30588;-76
2022/05/13 00:41:50;;;;;;;7.90;2.10;;;;;;;12.78;60.13;96773.42;107824;1268;44039;-76
2022/05/13 00:44:22;;;;;;;4.40;2.00;;;;;;;12.56;60.32;96772.48;107745;1269;48144;-76
2022/05/13 00:46:53;;;;;;;6.80;1.90;;;;;;;12.47;59.50;96769.42;107698;1268;46355;-76
2022/05/13 00:49:24;;;;;;;7.20;2.90;;;;;;;12.59;58.05;96775.76;107672;1268;46038;-76
2022/05/13 00:51:55;;;;;;;4.10;1.80;;;;;;;12.76;57.18;96775.45;107714;1268;35952;-76
2022/05/13 00:54:26;;;;;;;6.50;2.30;;;;;;;12.84;56.89;96772.44;107741;1268;37428;-76
2022/05/13 00:56:57;;;;;;;4.60;1.70;;;;;;;12.92;56.97;96773.70;107582;1268;65027;-76
2022/05/13 00:59:32;;;;;;;6.20;1.90;;;;;;;12.94;57.34;96775.30;107575;1270;31643;-76
2022/05/13 01:02:03;;;;;;;5.00;1.50;;;;;;;12.93;56.85;96781.72;107537;1270;40642;-76
2022/05/13 01:04:37;;;;;;;5.60;1.60;;;;;;;12.78;55.99;96782.78;107699;1268;41391;-76
2022/05/13 01:07:18;;;;;;;3.60;1.60;;;;;;;12.72;56.22;96783.41;107724;1270;46802;-76
2022/05/13 01:09:55;;;;;;;5.20;1.20;;;;;;;12.72;55.99;96784.31;107708;1268;43072;-76
2022/05/13 01:12:32;;;;;;;5.20;1.20;;;;;;;12.57;55.87;96783.34;107665;1268;33675;-76
2022/05/13 01:15:06;;;;;;;6.70;1.60;;;;;;;12.34;56.27;96785.65;107648;1270;49861;-76
2022/05/13 01:20:27;;;;;;;;;;;;;;;12.22;57.53;96790.20;107659;1270;54034;-76
2022/05/13 01:23:01;;;;;;;4.30;1.00;;;;;;;12.22;57.65;96787.33;107708;1268;43692;-76
2022/05/13 01:25:41;;;;;;;2.90;1.10;;;;;;;12.05;56.62;96788.70;107658;1269;50811;-76
2022/05/13 01:28:16;;;;;;;2.70;1.00;;;;;;;12.04;57.39;96787.21;107714;1268;41207;-76
2022/05/13 01:30:51;;;;;;;4.30;1.10;;;;;;;11.99;57.14;96775.15;107728;1268;40888;-76
2022/05/13 01:33:24;;;;;;;3.10;1.30;;;;;;;11.92;58.05;96774.23;107657;1268;42541;-76
2022/05/13 01:35:57;;;;;;;4.50;1.20;;;;;;;11.88;58.24;96766.94;107682;1270;43902;-76
2022/05/13 01:38:31;;;;;;;3.80;1.30;;;;;;;11.73;58.45;96767.11;107717;1270;30546;-76
2022/05/13 01:41:02;;;;;;;3.90;1.10;;;;;;;11.58;58.61;96767.27;107751;1269;39797;-76
2022/05/13 01:43:34;;;;;;;4.00;1.00;;;;;;;11.58;58.07;96765.95;107631;1268;41079;-76
2022/05/13 01:46:05;;;;;;;3.10;1.30;;;;;;;11.60;57.33;96753.74;107673;1268;43731;-76
2022/05/13 01:48:36;;;;;;;6.20;1.20;;;;;;;11.68;56.47;96744.59;107747;1270;37528;-76
2022/05/13 01:51:07;;;;;;;4.60;1.30;;;;;;;11.83;55.88;96751.79;107684;1269;43873;-76
2022/05/13 01:53:38;;;;;;;3.70;1.20;;;;;;;11.93;56.39;96753.77;107754;1268;35155;-76
2022/05/13 01:56:10;;;;;;;3.40;1.00;;;;;;;11.82;56.04;96758.86;107656;1270;33277;-76
2022/05/13 01:58:41;;;;;;;4.20;1.40;;;;;;;11.62;56.58;96762.34;107664;1268;48109;-76
2022/05/13 02:01:12;;;;;;;5.70;1.30;;;;;;;11.50;56.26;96759.31;107731;1269;33129;-76
2022/05/13 02:03:46;;;;;;;5.00;0.90;;;;;;;11.54;56.78;96757.10;107735;1268;32543;-76
2022/05/13 02:06:20;;;;;;;2.90;1.00;;;;;;;11.54;57.17;96757.58;107736;1268;39717;-76
2022/05/13 02:08:54;;;;;;;2.20;1.00;;;;;;;11.35;57.54;96750.64;107732;1270;38695;-76
2022/05/13 02:11:27;;;;;;;4.00;1.30;;;;;;;11.20;58.26;96743.07;107648;1268;48034;-76
2022/05/13 02:13:58;;;;;;;3.00;1.10;;;;;;;11.03;59.59;96737.69;107737;1270;36927;-76
2022/05/13 02:16:29;;;;;;;3.40;1.20;;;;;;;10.87;59.86;96736.77;107695;1268;37228;-76
2022/05/13 02:19:00;;;;;;;2.70;1.10;;;;;;;10.84;59.95;96733.39;107680;1268;30540;-75
2022/05/13 02:21:31;;;;;;;3.70;1.10;;;;;;;10.90;59.83;96732.02;107700;1270;32562;-75
2022/05/13 02:24:02;;;;;;;4.40;1.20;;;;;;;11.08;59.45;96726.67;107733;1268;39028;-76
2022/05/13 02:26:33;;;;;;;5.20;1.30;;;;;;;11.28;59.16;96729.95;107710;1270;34772;-76
2022/05/13 02:29:04;;;;;;;6.40;1.70;;;;;;;11.43;58.64;96729.98;107643;1268;35364;-75
2022/05/13 02:31:35;;;;;;;3.90;1.20;;;;;;;11.58;58.64;96727.65;107682;1268;50862;-76
2022/05/13 02:34:06;;;;;;;5.70;1.20;;;;;;;11.73;58.80;96729.89;107677;1269;42285;-76
2022/05/13 02:36:37;;;;;;;4.30;1.20;;;;;;;11.74;58.29;96727.43;107679;1270;42875;-76
2022/05/13 02:39:08;;;;;;;6.60;1.50;;;;;;;11.75;58.12;96730.11;107678;1268;61606;-76
2022/05/13 02:41:39;;;;;;;3.00;1.30;;;;;;;11.78;58.32;96726.27;107715;1268;32759;-76
2022/05/13 02:44:10;;;;;;;5.80;1.10;;;;;;;11.75;59.31;96726.67;107653;1270;42107;-76
2022/05/13 02:46:42;;;;;;;3.70;1.30;;;;;;;11.65;60.26;96729.05;107697;1270;33570;-75
2022/05/13 02:49:12;;;;;;;4.30;1.40;;;;;;;11.56;60.65;96732.87;107712;1268;37303;-76
2022/05/13 02:51:46;;;;;;;6.20;1.30;;;;;;;11.53;60.34;96732.95;107680;1269;32467;-75
2022/05/13 02:54:17;;;;;;;4.40;1.40;;;;;;;11.61;60.19;96731.39;107719;1268;33263;-75
2022/05/13 02:56:48;;;;;;;4.20;1.40;;;;;;;11.77;60.30;96725.23;107818;1268;37126;-76
2022/05/13 02:59:19;;;;;;;5.60;1.40;;;;;;;11.98;60.95;96731.02;107683;1268;64346;-76
2022/05/13 03:01:50;;;;;;;3.30;1.50;;;;;;;12.07;60.77;96724.52;107718;1268;37871;-76
2022/05/13 03:04:21;;;;;;;4.90;1.40;;;;;;;12.14;60.16;96730.56;107730;1270;36423;-76
2022/05/13 03:06:53;;;;;;;7.50;1.90;;;;;;;12.18;60.04;96726.89;107707;1268;34383;-75
2022/05/13 03:09:24;;;;;;;6.60;1.70;;;;;;;12.19;59.73;96727.94;107682;1270;43075;-76
2022/05/13 03:11:55;;;;;;;5.90;1.70;;;;;;;12.27;60.15;96730.77;107677;1269;54302;-75
2022/05/13 03:14:26;;;;;;;3.30;1.40;;;;;;;12.30;59.80;96730.46;107690;1268;41003;-75
2022/05/13 03:16:57;;;;;;;6.00;1.70;;;;;;;12.35;60.17;96733.36;107661;1270;60864;-75
2022/05/13 03:19:28;;;;;;;8.60;2.00;;;;;;;12.40;60.01;96729.89;107646;1268;61983;-75
2022/05/13 03:22:08;;;;;;;4.90;1.70;;;;;;;12.34;59.36;96735.08;107677;1268;37359;-76
2022/05/13 03:24:39;;;;;;;6.70;1.70;;;;;;;12.36;60.05;96739.88;107703;1270;45313;-75
2022/05/13 03:27:10;;;;;;;8.40;1.50;;;;;;;12.34;60.18;96737.95;107647;1270;33084;-75
2022/05/13 03:29:40;;;;;;;4.60;1.60;;;;;;;12.28;59.35;96739.21;107709;1268;33521;-75
2022/05/13 03:32:12;;;;;;;10.60;2.20;;;;;;;12.37;59.62;96739.35;107706;1270;50143;-75
2022/05/13 03:34:43;;;;;;;7.20;2.50;;;;;;;12.53;60.25;96735.84;107663;1271;94363;-75
2022/05/13 03:37:14;;;;;;;6.70;2.30;;;;;;;12.67;60.22;96733.73;107731;1270;95497;-75
2022/05/13 03:39:45;;;;;;;7.10;2.20;;;;;;;12.76;59.82;96731.73;107743;1268;35566;-75
2022/05/13 03:42:16;;;;;;;5.70;1.90;;;;;;;12.86;60.06;96732.23;107693;1270;46601;-75
2022/05/13 03:44:46;;;;;;;6.00;1.90;;;;;;;12.93;60.33;96727.75;107779;1268;35569;-75
2022/05/13 03:47:17;;;;;;;4.40;1.40;;;;;;;12.99;60.61;96728.41;107747;1270;34309;-75
2022/05/13 03:49:48;;;;;;;7.40;2.00;;;;;;;13.04;60.78;96725.34;107734;1268;84196;-75
2022/05/13 03:52:21;;;;;;;7.20;2.20;;;;;;;13.05;60.26;96724.36;107841;1268;30176;-75
2022/05/13 03:54:51;;;;;;;2.60;1.70;;;;;;;13.07;60.55;96722.47;107838;1268;32548;-75
2022/05/13 03:57:22;;;;;;;4.80;1.40;;;;;;;13.07;61.32;96727.11;107824;1270;38042;-75
2022/05/13 03:59:53;;;;;;;3.80;1.70;;;;;;;12.97;61.76;96727.96;107695;1270;44749;-75
2022/05/13 04:02:24;;;;;;;3.60;1.70;;;;;;;12.87;62.19;96728.48;107743;1270;44713;-75
2022/05/13 04:10:33;;;;;;;6.10;1.70;;;;;;;12.99;61.76;96733.14;107774;1268;68186;-76
2022/05/13 04:16:06;;;;;;;5.20;1.90;;;;;;;13.08;62.13;96732.15;107756;1270;33546;-76
2022/05/13 04:18:39;;;;;;;5.50;1.70;;;;;;;13.09;62.48;96728.77;107752;1270;36769;-75
2022/05/13 04:21:12;;;;;;;7.60;2.40;;;;;;;13.05;62.26;96732.46;107764;1268;35185;-76
2022/05/13 04:23:46;;;;;;;7.60;2.40;;;;;;;13.05;62.03;96737.26;107767;1270;34857;-75
2022/05/13 04:26:17;;;;;;;4.90;1.80;;;;;;;13.11;62.05;96734.12;107809;1268;53737;-75
2022/05/13 04:28:50;;;;;;;6.50;2.30;;;;;;;13.20;61.88;96731.71;107725;1270;43652;-76
2022/05/13 04:31:23;;;;;;;10.00;2.40;;;;;;;13.31;61.90;96737.60;107866;1268;46886;-75
2022/05/13 04:33:55;;;;;;;8.20;2.20;;;;;;;13.40;61.72;96737.25;107717;1268;55453;-75
2022/05/13 04:36:27;;;;;;;4.10;2.00;;;;;;;13.45;61.85;96738.33;107813;1268;42738;-76
2022/05/13 04:38:59;;;;;;;7.30;2.40;;;;;;;13.45;62.62;96742.69;107722;1268;50837;-76
2022/05/13 04:44:20;;;;;;;5.00;2.10;;;;;;;13.31;64.66;96749.26;107699;1270;34336;-76
2022/05/13 04:46:51;;;;;;;6.60;1.90;;;;;;;13.21;64.76;96754.38;107807;1270;32917;-76
2022/05/13 04:49:22;;;;;;;5.60;2.10;;;;;;;13.20;64.32;96759.19;107793;1270;42193;-76
2022/05/13 04:51:53;;;;;;;5.50;2.10;;;;;;;13.27;65.03;96755.69;107725;1269;58325;-76
2022/05/13 04:54:24;;;;;;;4.50;2.10;;;;;;;13.40;65.80;96755.99;107699;1270;52446;-76
2022/05/13 04:56:55;;;;;;;6.90;2.10;;;;;;;13.51;66.19;96754.09;107807;1268;31415;-76
2022/05/13 04:59:26;;;;;;;10.00;2.40;;;;;;;13.61;66.33;96754.83;107687;1268;49688;-75
2022/05/13 05:01:57;;;;;;;6.60;2.50;;;;;;;13.65;66.15;96752.63;107750;1268;37565;-76
2022/05/13 05:04:28;;;;;;;8.20;2.60;;;;;;;13.70;65.95;96755.86;107805;1268;33050;-76
2022/05/13 05:06:59;;;;;;;6.90;2.40;;;;;;;13.74;65.71;96752.67;107764;1268;32422;-76
2022/05/13 05:09:30;;;;;;;6.90;2.20;;;;;;;13.75;65.76;96756.08;107770;1269;44391;-76
2022/05/13 05:12:01;;;;;;;3.70;2.20;;;;;;;13.76;65.17;96753.73;107776;1268;32433;-76
2022/05/13 05:14:33;;;;;;;5.50;2.60;;;;;;;13.84;65.74;96759.43;107739;1268;58604;-75
2022/05/13 05:17:05;;;;;;;6.90;2.30;;;;;;;13.88;66.17;96764.98;107791;1268;33064;-76
2022/05/13 05:19:37;;;;;;;6.70;2.10;;;;;;;13.86;65.91;96759.45;107768;1268;41632;-76
2022/05/13 05:22:08;;;;;;;6.00;2.60;;;;;;;13.83;65.62;96757.41;107722;1268;48552;-76
2022/05/13 05:24:39;;;;;;;7.80;2.60;;;;;;;13.85;65.71;96753.11;107686;1270;59468;-75
2022/05/13 05:27:11;;;;;;;7.70;2.60;;;;;;;13.87;65.61;96755.20;107751;1268;33288;-76
2022/05/13 05:29:44;;;;;;;6.90;2.80;;;;;;;13.92;66.55;96756.80;107805;1268;32221;-76
2022/05/13 05:32:17;;;;;;;10.30;3.10;;;;;;;13.90;66.92;96750.45;107737;1270;44107;-76
2022/05/13 05:34:48;;;;;;;4.70;2.70;;;;;;;13.91;67.18;96752.14;107862;1268;46151;-76
2022/05/13 05:37:19;;;;;;;6.40;3.50;;;;;;;13.85;67.43;96753.80;107863;1268;34688;-76
2022/05/13 05:39:50;;;;;;;7.90;3.20;;;;;;;13.81;67.07;96755.91;107763;1270;45489;-75
2022/05/13 05:42:21;;;;;;;4.90;2.70;;;;;;;13.83;67.24;96752.99;107830;1268;35977;-76
2022/05/13 05:44:52;;;;;;;7.10;3.00;;;;;;;13.97;67.16;96756.19;107860;1270;32165;-76
2022/05/13 05:47:25;;;;;;;7.30;2.70;;;;;;;14.10;66.91;96760.20;107799;1268;45282;-76
2022/05/13 05:49:58;;;;;;;4.60;3.20;;;;;;;14.22;66.62;96766.96;107758;1269;40660;-75
2022/05/13 05:52:29;;;;;;;7.50;4.20;;;;;;;14.30;66.76;96770.48;107798;1271;38268;-76
2022/05/13 05:58:01;;;;;;;14.70;3.80;;;;;;;14.36;67.13;96774.32;107816;1270;33913;-76
2022/05/13 06:00:35;;;;;;;4.30;2.90;;;;;;;14.37;66.56;96775.02;107817;1268;42491;-76
2022/05/13 06:03:07;;;;;;;9.20;3.40;;;;;;;14.37;66.87;96776.46;107796;1268;35134;-76
2022/05/13 06:05:39;;;;;;;6.40;3.10;;;;;;;14.49;67.44;96774.48;107828;1268;44488;-76
2022/05/13 06:08:10;;;;;;;6.60;3.20;;;;;;;14.61;67.51;96776.64;107792;1268;30643;-76
2022/05/13 06:10:41;;;;;;;6.40;3.00;;;;;;;14.73;67.76;96779.63;107873;1268;38727;-76
2022/05/13 06:13:14;;;;;;;7.90;2.70;;;;;;;14.86;67.54;96778.06;107762;1268;37688;-76
2022/05/13 06:15:46;;;;;;;9.30;2.90;;;;;;;14.99;67.04;96776.06;107744;1268;36140;-76
2022/05/13 06:18:16;;;;;;;9.80;3.40;;;;;;;15.11;66.30;96781.88;107703;1271;39970;-76
2022/05/13 06:20:56;;;;;;;6.40;2.70;;;;;;;15.31;66.09;96778.35;107734;1270;40863;-76
2022/05/13 06:23:27;;;;;;;9.40;2.70;;;;;;;15.50;65.03;96771.27;107723;1271;38027;-76
2022/05/13 06:25:59;;;;;;;6.60;2.70;;;;;;;15.77;64.77;96764.69;107777;1270;35203;-76
2022/05/13 06:28:31;;;;;;;9.90;2.90;;;;;;;16.07;64.48;96761.27;107757;1271;34211;-76
2022/05/13 06:31:02;;;;;;;5.90;3.00;;;;;;;16.38;64.34;96765.63;107778;1268;57408;-76
2022/05/13 06:33:34;;;;;;;7.20;2.70;;;;;;;16.53;63.20;96765.04;107814;1268;47900;-76
2022/05/13 06:36:06;;;;;;;8.00;2.90;;;;;;;16.67;62.55;96759.79;107689;1269;52547;-76
2022/05/13 06:38:37;;;;;;;6.30;2.80;;;;;;;16.87;62.21;96761.02;107733;1271;35754;-76
2022/05/13 06:41:08;;;;;;;6.40;2.60;;;;;;;17.05;61.85;96760.73;107677;1270;37946;-76
2022/05/13 06:43:39;;;;;;;10.70;3.00;;;;;;;17.08;60.55;96755.60;107742;1269;45256;-76
2022/05/13 06:46:10;;;;;;;8.50;3.00;;;;;;;17.04;60.38;96749.45;107742;1270;38855;-76
2022/05/13 06:48:41;;;;;;;7.40;3.20;;;;;;;17.13;60.17;96745.19;107621;1271;55797;-76
2022/05/13 06:51:12;;;;;;;8.60;3.00;;;;;;;17.29;59.14;96744.19;107749;1271;41816;-76
2022/05/13 06:53:43;;;;;;;11.30;2.60;;;;;;;17.43;58.14;96741.80;107715;1270;62452;-76
2022/05/13 06:56:14;;;;;;;5.90;2.80;;;;;;;17.72;57.97;96735.37;107726;1271;42639;-76
2022/05/13 06:58:45;;;;;;;5.90;2.50;;;;;;;18.06;57.58;96738.18;107702;1269;35053;-76
2022/05/13 07:01:17;;;;;;;11.90;3.00;;;;;;;18.29;56.74;96740.31;107726;1268;39987;-76
2022/05/13 07:03:48;;;;;;;7.80;3.10;;;;;;;18.77;56.59;96738.78;107852;1271;40087;-76
2022/05/13 07:06:20;;;;;;;4.70;3.10;;;;;;;20.00;55.86;96739.30;107863;1270;34249;-77
2022/05/13 07:08:52;;;;;;;8.60;3.50;;;;;;;21.33;54.44;96737.17;107804;1270;62219;-76
2022/05/13 07:11:23;;;;;;;5.20;2.50;;;;;;;22.66;51.26;96740.09;107876;1268;36010;-77
2022/05/13 07:13:54;;;;;;;6.70;3.10;;;;;;;22.40;48.18;96743.76;107628;1268;67646;-76
2022/05/13 07:16:25;;;;;;;6.90;3.70;;;;;;;22.37;48.03;96741.40;107681;1271;43143;-77
2022/05/13 07:18:56;;;;;;;6.30;3.40;;;;;;;21.84;47.49;96736.63;107700;1270;37480;-76
2022/05/13 07:21:27;;;;;;;9.10;3.20;;;;;;;21.36;47.61;96735.53;107731;1268;52458;-76
2022/05/13 07:23:58;;;;;;;8.90;3.20;;;;;;;21.18;47.34;96730.84;107722;1268;38259;-76
2022/05/13 07:26:28;;;;;;;7.00;2.80;;;;;;;21.40;47.46;96730.77;107702;1268;55688;-76
2022/05/13 07:28:59;;;;;;;6.30;3.20;;;;;;;21.31;46.97;96730.30;107675;1268;60579;-76
2022/05/13 07:31:30;;;;;;;5.50;3.20;;;;;;;21.40;47.72;96728.38;107686;1270;33648;-77
2022/05/13 07:34:02;;;;;;;7.70;3.30;;;;;;;21.38;47.96;96726.19;107697;1270;37669;-77
2022/05/13 07:36:33;;;;;;;6.10;3.40;;;;;;;21.14;48.31;96732.11;107704;1268;54212;-76
2022/05/13 07:41:54;;;;;;;9.30;3.90;;;;;;;21.64;47.98;96731.00;107695;1269;41284;-77
2022/05/13 07:44:25;;;;;;;7.20;3.30;;;;;;;23.17;47.45;96727.16;107741;1269;33009;-77
2022/05/13 07:46:57;;;;;;;7.60;3.50;;;;;;;23.40;45.74;96723.92;107814;1268;34769;-77
2022/05/13 07:49:27;;;;;;;5.40;3.30;;;;;;;23.48;45.35;96720.98;107757;1268;41585;-77
2022/05/13 07:51:58;;;;;;;5.80;3.10;;;;;;;23.14;45.08;96726.67;107707;1268;71697;-76
2022/05/13 07:54:29;;;;;;;5.10;2.60;;;;;;;22.69;45.18;96724.70;107750;1268;40846;-77
2022/05/13 07:57:00;;;;;;;13.20;3.20;;;;;;;22.72;45.44;96726.48;107744;1268;38074;-77
2022/05/13 07:59:32;;;;;;;8.50;2.90;;;;;;;22.56;45.84;96721.73;107776;1268;34077;-77
2022/05/13 08:02:03;;;;;;;7.60;3.40;;;;;;;22.26;46.21;96729.31;107723;1268;49373;-76
2022/05/13 08:04:34;;;;;;;10.60;3.60;;;;;;;22.09;46.14;96731.62;107731;1268;58736;-77
2022/05/13 08:07:05;;;;;;;3.80;3.00;;;;;;;21.65;46.33;96730.11;107759;1268;33528;-77
2022/05/13 08:09:36;;;;;;;7.50;3.50;;;;;;;21.33;47.37;96730.67;107698;1271;41697;-77
2022/05/13 08:12:09;;;;;;;9.10;3.40;;;;;;;21.45;47.17;96733.06;107612;1270;47222;-76
2022/05/13 08:14:40;;;;;;;6.30;3.20;;;;;;;21.29;47.76;96727.34;107755;1268;44734;-77
2022/05/13 08:17:11;;;;;;;5.80;3.30;;;;;;;21.30;48.20;96727.97;107797;1269;38462;-77
2022/05/13 08:19:42;;;;;;;6.50;3.50;;;;;;;21.24;48.53;96722.34;107752;1271;39244;-76
2022/05/13 08:22:13;;;;;;;10.80;3.40;;;;;;;21.15;48.96;96713.14;107752;1268;43022;-77
2022/05/13 08:24:44;;;;;;;8.40;3.60;;;;;;;21.27;49.20;96707.63;107713;1268;59030;-76
2022/05/13 08:27:15;;;;;;;6.60;3.50;;;;;;;21.42;48.94;96708.02;107750;1268;41181;-76
2022/05/13 08:29:46;;;;;;;8.50;3.60;;;;;;;21.18;48.44;96704.59;107568;1271;35608;-76
2022/05/13 08:32:17;;;;;;;7.90;4.00;;;;;;;20.86;49.41;96714.23;107667;1268;42579;-76
2022/05/13 08:34:48;;;;;;;6.30;4.20;;;;;;;20.50;50.03;96712.95;107816;1268;41709;-76
2022/05/13 08:37:19;;;;;;;6.90;3.50;;;;;;;20.25;51.20;96711.04;107752;1271;56805;-76
2022/05/13 08:39:50;;;;;;;7.20;4.30;;;;;;;20.19;51.67;96710.21;107715;1268;47724;-76
2022/05/13 08:42:35;;;;;;;5.60;4.00;;;;;;;20.14;52.08;96710.98;107732;1271;37229;-76
2022/05/13 08:45:09;;;;;;;7.90;4.30;;;;;;;20.08;52.47;96717.41;107789;1268;34439;-76
2022/05/13 08:47:50;;;;;;;6.50;3.90;;;;;;;20.07;52.46;96721.53;107736;1267;45811;-76
2022/05/13 08:50:25;;;;;;;6.00;4.10;;;;;;;20.11;52.45;96722.80;107759;1271;57085;-76
2022/05/13 08:53:11;;;;;;;6.90;4.10;;;;;;;20.06;52.53;96724.20;107772;1268;37874;-76
2022/05/13 08:55:47;;;;;;;9.10;4.20;;;;;;;19.98;52.97;96716.33;107730;1268;36064;-76
2022/05/13 08:58:25;;;;;;;6.40;3.70;;;;;;;20.06;53.24;96716.58;107712;1268;36579;-76
2022/05/13 09:00:58;;;;;;;5.90;4.40;;;;;;;20.20;52.72;96710.66;107674;1268;54125;-76
2022/05/13 09:03:39;;;;;;;6.30;4.20;;;;;;;20.45;53.03;96708.27;107749;1268;40663;-76
2022/05/13 09:06:16;;;;;;;5.90;4.40;;;;;;;20.67;51.89;96704.39;107606;1270;41271;-76
2022/05/13 09:08:48;;;;;;;6.10;3.80;;;;;;;20.53;52.03;96706.29;107687;1268;46591;-76
2022/05/13 09:11:26;;;;;;;6.90;4.20;;;;;;;20.56;52.12;96705.36;107723;1268;47559;-76
2022/05/13 09:14:08;;;;;;;5.80;3.80;;;;;;;20.72;51.57;96700.69;107720;1268;44090;-76
2022/05/13 09:16:58;;;;;;;5.70;4.00;;;;;;;20.59;51.36;96700.78;107663;1271;45110;-76
2022/05/13 09:19:35;;;;;;;7.90;4.20;;;;;;;20.78;52.21;96706.23;107715;1268;37602;-77
2022/05/13 09:22:11;;;;;;;10.00;4.10;;;;;;;21.06;52.35;96701.39;107757;1268;36551;-77
2022/05/13 09:24:42;;;;;;;9.80;4.10;;;;;;;21.34;52.77;96699.02;107603;1270;37742;-77
2022/05/13 09:27:14;;;;;;;5.90;4.00;;;;;;;21.58;52.11;96695.04;106421;1268;1718574;-77
2022/05/13 09:29:47;;;;;;;8.00;4.40;;;;;;;21.44;51.47;96695.52;106246;1268;1989904;-78
2022/05/13 09:32:26;;;;;;;6.90;4.10;;;;;;;21.20;51.48;96697.86;107699;1268;60677;-78
2022/05/13 09:35:07;;;;;;;5.80;4.30;;;;;;;21.20;51.55;96700.78;107633;1268;92171;-78
2022/05/13 09:37:41;;;;;;;5.90;3.60;;;;;;;21.13;51.30;96700.21;106659;1268;1441576;-77
2022/05/13 09:40:24;;;;;;;6.80;4.20;;;;;;;21.12;52.31;96699.11;106278;1268;2047005;-78
2022/05/13 09:42:57;;;;;;;9.60;3.90;;;;;;;21.17;51.19;96701.56;107768;1268;31880;-78
2022/05/13 09:45:33;;;;;;;6.70;3.80;;;;;;;20.95;50.52;96704.55;107715;1270;67091;-78
2022/05/13 09:48:13;;;;;;;6.60;4.40;;;;;;;20.71;50.60;96705.82;106368;1271;1737225;-78
2022/05/13 09:50:49;;;;;;;6.20;4.10;;;;;;;20.55;50.90;96702.04;106721;1270;1268411;-78
2022/05/13 09:53:33;;;;;;;8.80;4.50;;;;;;;20.45;51.10;96700.97;106906;1270;1281866;-77
2022/05/13 09:56:06;;;;;;;8.10;4.00;;;;;;;20.40;51.67;96698.58;107794;1268;41117;-77
2022/05/13 09:58:52;;;;;;;7.40;4.10;;;;;;;20.43;51.74;96696.68;107699;1268;39758;-77
2022/05/13 10:01:29;;;;;;;8.50;4.10;;;;;;;20.57;52.13;96698.86;107794;1268;35498;-77
2022/05/13 10:04:08;;;;;;;10.40;4.60;;;;;;;20.58;51.87;96691.36;107569;1270;47727;-77
2022/05/13 10:06:41;;;;;;;9.30;4.00;;;;;;;20.71;51.01;96692.35;107732;1268;32440;-77
2022/05/13 10:15:28;;;;;;;8.20;3.70;;;;;;;21.02;50.76;96683.41;107669;1268;33571;-77
2022/05/13 10:18:06;;;;;;;6.90;3.90;;;;;;;21.10;50.64;96680.70;108339;1268;33434;-77
2022/05/13 10:20:44;;;;;;;8.00;4.30;;;;;;;21.02;50.38;96679.42;107578;1268;41507;-77
2022/05/13 10:23:23;;;;;;;9.20;4.20;;;;;;;21.12;50.88;96678.23;107633;1268;52700;-77
2022/05/13 10:26:01;;;;;;;7.00;4.00;;;;;;;21.48;50.92;96682.13;107745;1268;36755;-77
2022/05/13 10:28:37;;;;;;;6.50;4.10;;;;;;;21.60;49.43;96679.44;107762;1268;34375;-78
2022/05/13 10:31:11;;;;;;;9.60;3.70;;;;;;;21.46;49.47;96674.67;107705;1268;51002;-80
2022/05/13 10:33:48;;;;;;;8.40;4.40;;;;;;;21.55;50.52;96667.52;107683;1270;37680;-80
2022/05/13 10:36:27;;;;;;;5.10;4.10;;;;;;;21.70;50.31;96665.64;107734;1268;100176;-83
2022/05/13 10:39:06;;;;;;;7.00;4.40;;;;;;;21.67;49.02;96661.32;107678;1268;41479;-80
2022/05/13 10:41:44;;;;;;;7.10;3.80;;;;;;;21.54;49.35;96661.39;107740;1268;36764;-79
2022/05/13 10:44:21;;;;;;;8.00;4.00;;;;;;;21.56;48.91;96656.20;107704;1270;41895;-79
2022/05/13 10:46:56;;;;;;;7.20;4.10;;;;;;;21.51;49.05;96654.20;107797;1269;42290;-81
2022/05/13 10:49:35;;;;;;;8.60;4.20;;;;;;;21.81;49.98;96652.19;107691;1268;96975;-80
2022/05/13 10:52:13;;;;;;;8.00;4.10;;;;;;;22.08;49.72;96645.88;107757;1268;40514;-81
2022/05/13 10:54:52;;;;;;;8.80;4.00;;;;;;;22.31;49.15;96638.92;107700;1268;61261;-80
2022/05/13 10:57:35;;;;;;;8.90;4.40;;;;;;;22.47;48.79;96644.80;107689;1268;48936;-80
2022/05/13 11:00:17;;;;;;;7.00;3.80;;;;;;;22.64;48.32;96641.14;107683;1268;41212;-81
2022/05/13 11:03:39;;;;;;;8.80;3.70;;;;;;;22.76;48.68;96640.77;107792;1268;35989;-80
2022/05/13 11:06:34;;;;;;;6.60;3.80;;;;;;;22.86;49.12;96628.56;106837;1276;198885;-80
2022/05/13 11:09:11;;;;;;;5.70;3.60;;;;;;;22.91;48.49;96626.11;106910;1274;39765;-78
2022/05/13 11:11:45;;;;;;;8.00;4.00;;;;;;;23.00;48.24;96619.02;108566;1268;43482;-78
2022/05/13 11:14:32;;;;;;;8.30;4.10;;;;;;;23.21;48.63;96621.64;108693;1267;64463;-78
2022/05/13 11:17:15;;;;;;;9.00;4.30;;;;;;;23.21;46.46;96619.94;108051;1270;227869;-78
2022/05/13 11:19:58;;;;;;;8.70;4.30;;;;;;;23.07;48.77;96615.82;107772;1268;54805;-78
2022/05/13 11:22:37;;;;;;;7.40;4.50;;;;;;;23.26;47.38;96611.54;107683;1270;44150;-79
2022/05/13 11:28:19;;;;;;;6.50;4.10;;;;;;;23.44;46.64;96599.77;107677;1270;83868;-79
2022/05/13 11:31:01;;;;;;;6.30;4.50;;;;;;;23.36;47.32;96596.93;107759;1268;77156;-78
2022/05/13 11:33:41;;;;;;;6.00;4.10;;;;;;;23.39;47.24;96592.65;107727;1270;40368;-77
2022/05/13 11:36:24;;;;;;;6.30;4.60;;;;;;;23.54;46.66;96595.54;105557;1268;2217072;-77
2022/05/13 11:39:19;;;;;;;9.00;4.30;;;;;;;23.33;45.80;96589.15;107736;1268;92546;-76
2022/05/13 11:41:59;;;;;;;7.80;4.60;;;;;;;23.17;46.67;96593.34;107793;1270;30596;-77
2022/05/13 11:44:39;;;;;;;9.80;4.50;;;;;;;23.28;47.16;96592.48;107742;1268;43195;-76
2022/05/13 11:47:17;;;;;;;7.20;4.00;;;;;;;23.37;47.35;96585.21;107733;1268;44844;-75
2022/05/13 11:49:49;;;;;;;10.90;4.20;;;;;;;23.33;47.37;96586.44;107686;1270;71401;-77
2022/05/13 11:52:46;;;;;;;5.50;4.30;;;;;;;23.36;47.92;96578.61;107781;1269;75891;-76
2022/05/13 11:55:21;;;;;;;7.00;4.00;;;;;;;23.27;47.75;96578.31;107614;1268;83094;-76
2022/05/13 11:57:55;;;;;;;9.90;4.70;;;;;;;23.24;48.16;96575.10;107790;1268;75310;-77
2022/05/13 12:00:44;;;;;;;11.50;4.60;;;;;;;23.20;47.54;96576.17;107848;1268;70974;-76
2022/05/13 12:03:21;;;;;;;6.80;4.30;;;;;;;22.96;48.12;96573.67;106174;1268;1910019;-76
2022/05/13 12:06:13;;;;;;;9.60;4.60;;;;;;;23.00;48.59;96565.73;107916;1268;63241;-77
2022/05/13 12:08:51;;;;;;;8.80;3.90;;;;;;;23.07;48.90;96563.73;107820;1268;73725;-75
2022/05/13 12:11:52;;;;;;;9.70;4.70;;;;;;;23.15;48.81;96567.43;107653;1270;79884;-76
2022/05/13 12:14:31;;;;;;;9.60;4.30;;;;;;;23.18;48.60;96558.45;107846;1268;78105;-76
2022/05/13 12:17:12;;;;;;;10.00;5.00;;;;;;;23.05;47.36;96554.59;107682;1268;87503;-75
2022/05/13 12:19:56;;;;;;;6.30;4.40;;;;;;;22.87;47.65;96554.66;107721;1268;43937;-76
2022/05/13 12:22:37;;;;;;;8.50;4.60;;;;;;;22.80;48.38;96551.05;107660;1268;68706;-76
2022/05/13 12:25:13;;;;;;;7.50;4.50;;;;;;;22.78;48.30;96547.83;107578;1269;88570;-77